Time;durP1;ratioP1;P1;durP2;ratioP2;P2;SDS_P1;SDS_P2;PMS_P1;PMS_P2;Temp;Humidity;BMP_temperature;BMP_pressure;BME280_temperature;BME280_humidity;BME280_pressure;Samples;Min_cycle;Max_cycle;Signal;HPM_P1;HPM_P2
2022/03/08 00:00:24;;;;;;;10.73;3.40;;;;;;;-0.46;70.69;101626.53;4998915;28;20042;-71
2022/03/08 00:02:49;;;;;;;6.20;2.77;;;;;;;-0.46;70.38;101617.03;5000466;28;20117;-71
2022/03/08 00:05:15;;;;;;;7.77;3.40;;;;;;;-0.46;70.72;101617.03;4999444;28;20559;-71
2022/03/08 00:07:41;;;;;;;7.13;2.73;;;;;;;-0.53;70.24;101614.03;4996773;28;20034;-71
2022/03/08 00:10:08;;;;;;;6.50;3.10;;;;;;;-0.65;70.13;101609.06;4999587;28;20038;-71
2022/03/08 00:12:34;;;;;;;7.10;3.10;;;;;;;-0.75;70.20;101617.13;5002320;28;20079;-71
2022/03/08 00:14:59;;;;;;;6.97;3.27;;;;;;;-0.81;70.58;101617.66;4997642;28;20042;-71
2022/03/08 00:17:25;;;;;;;7.73;3.83;;;;;;;-0.86;71.20;101611.31;4999586;28;20053;-71
2022/03/08 00:19:50;;;;;;;6.70;3.27;;;;;;;-0.86;71.17;101620.78;4999323;28;20446;-71
2022/03/08 00:22:16;;;;;;;7.77;3.50;;;;;;;-0.88;71.30;101616.41;4997542;28;20423;-71
2022/03/08 00:24:42;;;;;;;8.93;3.50;;;;;;;-0.89;71.30;101622.41;5000367;28;20034;-71
2022/03/08 00:27:07;;;;;;;9.07;4.17;;;;;;;-0.90;71.34;101611.94;4997909;28;20034;-71
2022/03/08 00:29:38;;;;;;;8.90;3.33;;;;;;;-0.98;71.39;101616.69;4998340;28;20113;-71
2022/03/08 00:32:04;;;;;;;5.83;3.27;;;;;;;-1.01;71.82;101613.91;5007273;28;20121;-71
2022/03/08 00:34:29;;;;;;;7.60;3.20;;;;;;;-1.05;72.00;101616.22;4997946;28;20454;-71
2022/03/08 00:36:55;;;;;;;6.10;2.90;;;;;;;-1.09;71.35;101622.06;4997165;28;20060;-71
2022/03/08 00:39:20;;;;;;;5.57;2.70;;;;;;;-1.14;72.20;101609.72;5017128;28;20040;-71
2022/03/08 00:41:46;;;;;;;6.67;3.67;;;;;;;-1.17;72.36;101616.44;5051518;28;20087;-71
2022/03/08 00:44:11;;;;;;;9.17;4.10;;;;;;;-1.20;71.51;101616.25;5009302;28;20030;-71
2022/03/08 00:46:37;;;;;;;7.87;3.20;;;;;;;-1.21;73.03;101604.09;5012609;28;20133;-71
2022/03/08 00:49:03;;;;;;;7.57;3.50;;;;;;;-1.23;73.46;101603.09;5014076;28;20073;-71
2022/03/08 00:51:28;;;;;;;7.73;3.80;;;;;;;-1.29;73.05;101600.16;5013929;28;20141;-71
2022/03/08 00:53:53;;;;;;;6.97;3.50;;;;;;;-1.36;73.09;101602.41;4997007;28;20042;-71
2022/03/08 00:56:19;;;;;;;7.57;3.80;;;;;;;-1.45;73.09;101586.31;5000042;28;20037;-71
2022/03/08 00:58:44;;;;;;;6.87;3.57;;;;;;;-1.56;72.77;101589.97;5012893;28;20046;-71
2022/03/08 01:01:10;;;;;;;7.63;3.40;;;;;;;-1.63;73.60;101592.97;4996950;28;20033;-71
2022/03/08 01:03:35;;;;;;;6.90;3.77;;;;;;;-1.64;74.12;101601.56;4999317;28;20120;-71
2022/03/08 01:06:01;;;;;;;5.87;3.07;;;;;;;-1.67;74.69;101594.50;4997983;28;20042;-71
2022/03/08 01:08:26;;;;;;;8.47;3.60;;;;;;;-1.67;74.73;101601.38;5006494;28;20029;-71
2022/03/08 01:10:53;;;;;;;7.63;3.13;;;;;;;-1.72;74.67;101600.22;4996894;28;20041;-71
2022/03/08 01:13:19;;;;;;;7.53;3.67;;;;;;;-1.73;74.33;101600.97;5002141;28;20416;-71
2022/03/08 01:15:44;;;;;;;8.03;3.50;;;;;;;-1.72;76.26;101600.22;4999261;28;20041;-71
2022/03/08 01:18:09;;;;;;;10.13;4.13;;;;;;;-1.73;75.00;101603.56;5018331;28;20034;-71
2022/03/08 01:20:35;;;;;;;7.77;3.93;;;;;;;-1.74;74.54;101599.22;5000912;28;20042;-71
2022/03/08 01:23:00;;;;;;;10.17;3.53;;;;;;;-1.75;74.87;101587.97;5001249;28;20034;-71
2022/03/08 01:25:26;;;;;;;10.50;4.00;;;;;;;-1.72;75.44;101584.69;5002107;28;20507;-71
2022/03/08 01:27:53;;;;;;;8.07;3.90;;;;;;;-1.74;75.01;101581.09;4999637;28;20042;-71
2022/03/08 01:30:20;;;;;;;9.40;3.77;;;;;;;-1.84;75.10;101577.03;5008761;28;20045;-71
2022/03/08 01:32:46;;;;;;;10.60;4.03;;;;;;;-1.98;75.33;101581.41;5001153;28;20038;-71
2022/03/08 01:35:14;;;;;;;8.07;3.60;;;;;;;-2.07;74.23;101575.63;5002420;28;20495;-71
2022/03/08 01:37:40;;;;;;;6.53;3.50;;;;;;;-2.15;74.61;101576.88;4999855;28;20049;-71
2022/03/08 01:40:08;;;;;;;7.60;3.80;;;;;;;-2.19;74.52;101585.25;5017335;28;20030;-71
2022/03/08 01:42:34;;;;;;;9.20;3.90;;;;;;;-2.29;75.08;101581.19;5013499;28;20516;-71
2022/03/08 01:45:00;;;;;;;8.70;3.70;;;;;;;-2.37;75.40;101575.53;5002669;28;20473;-71
2022/03/08 01:47:26;;;;;;;9.30;4.43;;;;;;;-2.41;75.19;101573.56;4999820;28;20046;-71
2022/03/08 01:49:53;;;;;;;7.10;3.50;;;;;;;-2.45;76.11;101564.72;5000484;28;20072;-71
2022/03/08 01:52:23;;;;;;;7.70;3.50;;;;;;;-2.47;76.13;101566.31;4996836;28;20043;-71
2022/03/08 01:54:49;;;;;;;7.00;3.43;;;;;;;-2.47;77.16;101570.59;5002599;28;20038;-71
2022/03/08 01:57:15;;;;;;;7.57;4.07;;;;;;;-2.50;76.67;101560.94;4997309;28;20034;-71
2022/03/08 01:59:41;;;;;;;8.23;3.63;;;;;;;-2.51;76.66;101563.44;5001310;28;20408;-71
2022/03/08 02:02:07;;;;;;;9.80;4.37;;;;;;;-2.55;77.21;101559.75;5001493;28;20038;-71
2022/03/08 02:04:33;;;;;;;9.27;4.17;;;;;;;-2.56;77.00;101550.22;4999511;28;20511;-71
2022/03/08 02:07:00;;;;;;;8.20;3.40;;;;;;;-2.56;76.86;101559.69;5002170;28;20046;-71
2022/03/08 02:09:25;;;;;;;7.50;3.60;;;;;;;-2.60;77.53;101557.69;5000650;28;20043;-71
2022/03/08 02:11:50;;;;;;;10.03;4.20;;;;;;;-2.63;76.44;101553.22;5000132;28;20038;-71
2022/03/08 02:14:16;;;;;;;6.33;3.57;;;;;;;-2.68;76.10;101562.38;5002897;28;20117;-71
2022/03/08 02:16:42;;;;;;;8.83;3.43;;;;;;;-2.71;76.86;101567.34;5001850;28;20074;-71
2022/03/08 02:19:11;;;;;;;8.57;3.93;;;;;;;-2.76;77.20;101567.03;5003144;28;20034;-71
2022/03/08 02:21:37;;;;;;;7.57;3.43;;;;;;;-2.85;77.83;101566.47;5006540;28;20034;-71
2022/03/08 02:24:03;;;;;;;8.13;4.03;;;;;;;-2.83;78.01;101563.97;5013087;28;20057;-71
2022/03/08 02:26:28;;;;;;;9.07;4.00;;;;;;;-2.83;78.43;101557.09;5018550;28;20049;-71
2022/03/08 02:28:54;;;;;;;7.90;3.50;;;;;;;-2.82;78.09;101552.84;5003034;28;20034;-71
2022/03/08 02:31:19;;;;;;;8.00;3.50;;;;;;;-2.82;78.15;101564.09;5017746;28;20120;-71
2022/03/08 02:33:45;;;;;;;6.13;3.23;;;;;;;-2.87;77.84;101568.94;4999454;28;20046;-71
2022/03/08 02:36:11;;;;;;;8.73;3.90;;;;;;;-2.89;77.15;101561.88;5002255;28;20545;-71
2022/03/08 02:38:36;;;;;;;6.90;3.63;;;;;;;-2.91;78.00;101568.63;5002967;28;20043;-71
2022/03/08 02:41:01;;;;;;;8.93;3.67;;;;;;;-2.89;78.47;101555.03;5000475;28;20141;-71
2022/03/08 02:43:27;;;;;;;7.33;3.47;;;;;;;-2.87;77.79;101556.03;5000958;28;20046;-71
2022/03/08 02:45:52;;;;;;;7.23;3.57;;;;;;;-2.88;78.03;101556.84;4998895;28;20030;-71
2022/03/08 02:48:17;;;;;;;9.70;4.60;;;;;;;-2.91;78.42;101555.72;5001795;28;20041;-71
2022/03/08 02:50:43;;;;;;;9.60;5.23;;;;;;;-2.95;79.49;101554.66;4999538;28;20041;-71
2022/03/08 02:53:08;;;;;;;8.00;4.23;;;;;;;-2.95;79.13;101561.50;4999972;28;20034;-71
2022/03/08 02:55:35;;;;;;;7.60;4.20;;;;;;;-2.93;78.80;101570.25;5013069;28;20540;-71
2022/03/08 02:58:02;;;;;;;6.60;3.50;;;;;;;-2.92;78.69;101564.28;5001667;28;20034;-71
2022/03/08 03:00:29;;;;;;;10.73;4.47;;;;;;;-2.89;78.21;101564.47;4999361;28;20065;-71
2022/03/08 03:02:54;;;;;;;10.77;4.07;;;;;;;-2.92;78.25;101569.44;4999640;28;20099;-71
2022/03/08 03:05:20;;;;;;;9.03;4.40;;;;;;;-2.94;79.13;101568.44;5001394;28;20034;-71
2022/03/08 03:07:45;;;;;;;8.73;4.23;;;;;;;-2.97;78.59;101565.66;5001634;28;20121;-71
2022/03/08 03:10:14;;;;;;;9.10;3.83;;;;;;;-3.00;78.75;101580.97;4999025;28;20030;-72
2022/03/08 03:12:40;;;;;;;8.70;3.93;;;;;;;-3.11;78.53;101578.59;4999509;28;20052;-71
2022/03/08 03:15:08;;;;;;;7.33;3.77;;;;;;;-3.15;79.54;101578.28;5000845;28;20030;-71
2022/03/08 03:17:34;;;;;;;7.13;3.63;;;;;;;-3.19;79.09;101579.78;4997242;28;20052;-71
2022/03/08 03:19:59;;;;;;;9.73;4.63;;;;;;;-3.25;78.02;101581.03;5000773;28;20042;-71
2022/03/08 03:22:24;;;;;;;9.10;4.00;;;;;;;-3.29;79.94;101579.97;4999626;28;20488;-72
2022/03/08 03:24:50;;;;;;;8.93;3.87;;;;;;;-3.30;79.58;101591.09;4998909;28;20118;-71
2022/03/08 03:27:15;;;;;;;9.63;4.43;;;;;;;-3.28;80.00;101599.81;4997046;28;20041;-71
2022/03/08 03:29:40;;;;;;;9.10;4.70;;;;;;;-3.29;80.78;101598.03;5000658;28;20034;-71
2022/03/08 03:32:06;;;;;;;8.63;4.20;;;;;;;-3.30;79.94;101596.25;4998824;28;20074;-71
2022/03/08 03:34:31;;;;;;;10.60;4.50;;;;;;;-3.32;79.36;101597.81;4999451;28;20117;-71
2022/03/08 03:36:57;;;;;;;11.63;4.73;;;;;;;-3.28;79.42;101598.91;5000776;28;20044;-72
2022/03/08 03:39:22;;;;;;;8.13;4.00;;;;;;;-3.33;78.79;101602.09;4998062;28;20039;-71
2022/03/08 03:41:47;;;;;;;9.93;4.57;;;;;;;-3.41;79.42;101607.53;5000250;28;20034;-71
2022/03/08 03:44:13;;;;;;;9.00;4.77;;;;;;;-3.41;79.33;101604.94;4999261;28;20039;-71
2022/03/08 03:46:39;;;;;;;8.43;4.03;;;;;;;-3.42;80.18;101606.63;4998785;28;20133;-71
2022/03/08 03:49:04;;;;;;;9.37;5.30;;;;;;;-3.46;80.01;101614.94;5000730;28;20033;-71
2022/03/08 03:51:29;;;;;;;10.00;4.27;;;;;;;-3.47;79.49;101612.28;4997765;28;20058;-71
2022/03/08 03:53:55;;;;;;;7.93;3.97;;;;;;;-3.45;79.27;101611.59;4999961;28;20538;-71
2022/03/08 03:56:20;;;;;;;9.77;4.60;;;;;;;-3.45;79.22;101616.75;4995843;28;20040;-71
2022/03/08 03:58:45;;;;;;;6.77;3.63;;;;;;;-3.49;79.64;101611.28;4998405;28;20096;-71
2022/03/08 04:01:11;;;;;;;9.37;4.67;;;;;;;-3.50;79.64;101617.25;5000456;28;20695;-71
2022/03/08 04:03:36;;;;;;;7.80;3.87;;;;;;;-3.54;79.43;101616.13;4997866;28;20026;-71
2022/03/08 04:06:02;;;;;;;8.73;4.23;;;;;;;-3.55;79.45;101604.91;4999460;28;20045;-71
2022/03/08 04:08:27;;;;;;;9.57;4.23;;;;;;;-3.54;79.88;101605.78;5006043;28;20034;-71
2022/03/08 04:10:52;;;;;;;11.03;4.57;;;;;;;-3.54;79.82;101601.56;5022874;28;20046;-71
2022/03/08 04:13:18;;;;;;;10.67;5.10;;;;;;;-3.53;79.28;101608.50;5000506;28;20038;-71
2022/03/08 04:15:45;;;;;;;10.33;5.20;;;;;;;-3.52;79.14;101609.38;5002070;28;20032;-71
2022/03/08 04:18:11;;;;;;;9.70;4.97;;;;;;;-3.57;79.31;101616.81;5036971;28;20108;-71
2022/03/08 04:20:36;;;;;;;8.50;4.67;;;;;;;-3.58;79.65;101612.44;4997675;28;20041;-71
2022/03/08 04:23:02;;;;;;;10.03;4.23;;;;;;;-3.64;79.39;101618.88;4997531;28;20043;-71
2022/03/08 04:25:28;;;;;;;10.57;3.87;;;;;;;-3.70;78.88;101614.19;4999774;28;20442;-71
2022/03/08 04:27:53;;;;;;;10.67;4.53;;;;;;;-3.76;78.95;101618.94;4996719;28;20079;-71
2022/03/08 04:30:19;;;;;;;9.83;4.20;;;;;;;-3.81;78.87;101609.97;4999381;28;20106;-71
2022/03/08 04:32:45;;;;;;;8.17;4.20;;;;;;;-3.88;78.97;101618.06;4997061;28;20030;-71
2022/03/08 04:35:10;;;;;;;10.07;4.57;;;;;;;-4.00;79.12;101624.19;4996050;28;20042;-71
2022/03/08 04:37:35;;;;;;;10.37;5.03;;;;;;;-4.10;78.89;101626.00;4999280;28;20072;-71
2022/03/08 04:40:03;;;;;;;10.60;5.10;;;;;;;-4.07;79.43;101619.38;4993521;28;20034;-71
2022/03/08 04:42:28;;;;;;;8.90;4.03;;;;;;;-4.07;79.67;101623.66;4999090;28;20046;-71
2022/03/08 04:44:53;;;;;;;12.17;5.07;;;;;;;-4.07;79.55;101621.97;4996330;28;20091;-71
2022/03/08 04:47:19;;;;;;;9.97;4.30;;;;;;;-4.05;79.55;101615.22;4998505;28;20091;-71
2022/03/08 04:49:44;;;;;;;8.77;4.67;;;;;;;-4.02;80.22;101611.97;5002793;28;20048;-71
2022/03/08 04:52:09;;;;;;;12.73;4.90;;;;;;;-4.02;80.56;101605.13;5031232;28;20066;-71
2022/03/08 04:54:35;;;;;;;9.97;4.83;;;;;;;-4.04;80.23;101606.69;4997833;28;20034;-71
2022/03/08 04:57:02;;;;;;;8.53;4.40;;;;;;;-4.01;80.81;101600.84;5005819;28;20038;-71
2022/03/08 04:59:28;;;;;;;9.43;4.93;;;;;;;-3.95;81.27;101605.56;4998874;28;20405;-71
2022/03/08 05:01:53;;;;;;;10.60;5.23;;;;;;;-3.94;81.10;101608.22;5001924;28;20038;-71
2022/03/08 05:04:20;;;;;;;8.93;3.93;;;;;;;-3.90;80.84;101615.41;5035535;28;20042;-72
2022/03/08 05:06:47;;;;;;;7.67;4.50;;;;;;;-3.86;81.99;101604.50;5000356;28;20442;-72
2022/03/08 05:09:12;;;;;;;15.77;7.73;;;;;;;-3.85;81.74;101610.53;4998799;28;20077;-71
2022/03/08 05:11:37;;;;;;;12.03;6.03;;;;;;;-3.85;81.54;101610.53;4998548;28;20118;-71
2022/03/08 05:14:03;;;;;;;13.83;7.43;;;;;;;-3.88;81.13;101610.34;5005842;28;20496;-71
2022/03/08 05:16:28;;;;;;;11.03;5.07;;;;;;;-3.94;80.31;101602.19;5020141;28;20038;-72
2022/03/08 05:18:53;;;;;;;12.20;5.77;;;;;;;-4.00;80.26;101611.28;4993769;28;20069;-71
2022/03/08 05:21:19;;;;;;;9.60;4.77;;;;;;;-4.05;81.12;101607.50;4996034;28;20031;-73
2022/03/08 05:23:44;;;;;;;10.00;4.90;;;;;;;-4.05;80.76;101609.19;4997306;28;20087;-72
2022/03/08 05:26:10;;;;;;;8.20;3.80;;;;;;;-4.06;81.26;101618.59;5012460;28;20048;-72
2022/03/08 05:28:36;;;;;;;10.30;4.57;;;;;;;-4.08;80.84;101621.88;5002556;28;20439;-71
2022/03/08 05:31:01;;;;;;;9.90;4.53;;;;;;;-4.09;81.36;101627.78;4998337;28;20072;-71
2022/03/08 05:33:27;;;;;;;11.30;4.17;;;;;;;-4.03;80.81;101630.81;5012973;28;20034;-72
2022/03/08 05:35:52;;;;;;;8.47;3.90;;;;;;;-3.98;81.57;101635.50;4996717;28;20049;-71
2022/03/08 05:38:18;;;;;;;7.10;3.13;;;;;;;-3.95;80.94;101637.41;5010250;28;20050;-71
2022/03/08 05:40:44;;;;;;;7.67;3.40;;;;;;;-3.93;80.96;101637.50;5021508;28;20034;-71
2022/03/08 05:43:09;;;;;;;7.20;3.47;;;;;;;-3.93;81.20;101634.91;5020721;28;20068;-72
2022/03/08 05:45:35;;;;;;;8.57;4.33;;;;;;;-3.93;80.92;101640.06;5022263;28;20034;-71
2022/03/08 05:48:00;;;;;;;10.17;4.70;;;;;;;-3.91;81.06;101639.38;5009525;28;20113;-71
2022/03/08 05:50:26;;;;;;;7.73;4.60;;;;;;;-3.87;80.71;101640.53;5021940;28;20038;-71
2022/03/08 05:52:51;;;;;;;7.17;4.50;;;;;;;-3.86;80.26;101642.28;5019397;28;20048;-72
2022/03/08 05:55:17;;;;;;;13.73;4.90;;;;;;;-3.91;80.34;101639.38;5012208;28;20067;-71
2022/03/08 05:57:42;;;;;;;12.50;6.10;;;;;;;-3.88;80.70;101639.59;5011946;28;20031;-72
2022/03/08 06:00:08;;;;;;;15.83;6.40;;;;;;;-3.86;80.44;101639.72;5018771;28;20037;-72
2022/03/08 06:02:40;;;;;;;14.02;7.25;;;;;;;-3.88;79.81;101643.88;5013214;28;20034;-71
2022/03/08 06:05:06;;;;;;;18.63;9.70;;;;;;;-3.84;80.37;101644.19;5032217;28;20049;-71
2022/03/08 06:07:31;;;;;;;16.97;7.73;;;;;;;-3.77;79.83;101655.84;5008958;28;20042;-71
2022/03/08 06:09:57;;;;;;;11.97;7.07;;;;;;;-3.72;80.14;101656.16;4998758;28;20038;-71
2022/03/08 06:12:22;;;;;;;15.23;7.47;;;;;;;-3.66;79.88;101651.44;4999843;28;20095;-71
2022/03/08 06:14:47;;;;;;;14.37;6.80;;;;;;;-3.59;80.24;101663.94;5000899;28;20140;-71
2022/03/08 06:17:12;;;;;;;11.47;6.70;;;;;;;-3.53;80.34;101660.09;4999655;28;20044;-71
2022/03/08 06:19:38;;;;;;;12.83;7.00;;;;;;;-3.47;79.75;101662.22;5002294;28;20086;-72
2022/03/08 06:22:04;;;;;;;13.83;6.23;;;;;;;-3.40;79.63;101664.44;4997610;28;20034;-71
2022/03/08 06:24:29;;;;;;;13.57;6.20;;;;;;;-3.36;80.01;101673.25;5000884;28;20056;-71
2022/03/08 06:26:55;;;;;;;12.60;6.50;;;;;;;-3.32;79.08;101685.59;5005951;28;20396;-71
2022/03/08 06:29:20;;;;;;;11.57;5.47;;;;;;;-3.29;79.41;101683.22;5001905;28;20038;-71
2022/03/08 06:31:46;;;;;;;9.83;5.70;;;;;;;-3.27;80.23;101684.22;4998712;28;20031;-71
2022/03/08 06:34:11;;;;;;;11.50;6.07;;;;;;;-3.24;80.61;101678.38;4999872;28;20083;-72
2022/03/08 06:36:39;;;;;;;11.30;5.50;;;;;;;-3.17;79.65;101684.06;5033595;28;20533;-71
2022/03/08 06:39:04;;;;;;;9.80;5.67;;;;;;;-3.09;80.67;101690.63;5019826;28;20033;-71
2022/03/08 06:41:31;;;;;;;10.97;5.33;;;;;;;-2.96;80.36;101692.34;5024409;28;20034;-72
2022/03/08 06:43:56;;;;;;;10.13;5.00;;;;;;;-2.85;80.46;101690.47;5014596;28;20038;-72
2022/03/08 06:46:22;;;;;;;9.40;4.40;;;;;;;-2.74;80.49;101693.78;5002867;28;20036;-72
2022/03/08 06:48:47;;;;;;;20.10;9.20;;;;;;;-2.62;79.82;101685.91;4997929;28;20064;-71
2022/03/08 06:51:14;;;;;;;16.43;7.27;;;;;;;-2.49;80.56;101683.31;5001613;28;20045;-71
2022/03/08 06:53:39;;;;;;;11.73;6.27;;;;;;;-2.39;80.55;101682.25;4998992;28;20049;-71
2022/03/08 06:56:04;;;;;;;12.27;5.13;;;;;;;-2.31;80.02;101686.22;5002099;28;20034;-71
2022/03/08 06:58:30;;;;;;;9.97;4.70;;;;;;;-2.23;79.84;101679.84;5008233;28;20075;-72
2022/03/08 07:00:55;;;;;;;14.90;4.60;;;;;;;-2.14;80.01;101683.03;5018323;28;20079;-72
2022/03/08 07:03:21;;;;;;;14.20;5.10;;;;;;;-2.03;79.26;101687.16;5032530;28;20030;-71
2022/03/08 07:05:46;;;;;;;13.50;4.63;;;;;;;-1.93;79.84;101688.66;5019023;28;20041;-72
2022/03/08 07:08:12;;;;;;;14.43;4.70;;;;;;;-1.83;79.51;101684.94;5004554;28;20113;-71
2022/03/08 07:10:37;;;;;;;11.57;5.10;;;;;;;-1.73;79.99;101683.81;5000325;28;20029;-72
2022/03/08 07:13:03;;;;;;;8.40;4.33;;;;;;;-1.61;80.42;101684.56;5001841;28;20447;-71
2022/03/08 07:15:28;;;;;;;9.97;4.60;;;;;;;-1.48;80.22;101686.22;4998528;28;20488;-72
2022/03/08 07:17:53;;;;;;;10.37;5.57;;;;;;;-1.36;80.10;101674.91;5000364;28;20515;-72
2022/03/08 07:20:20;;;;;;;10.90;5.80;;;;;;;-1.24;80.51;101682.50;5000369;28;20115;-71
2022/03/08 07:22:46;;;;;;;15.47;5.93;;;;;;;-1.10;80.38;101685.94;4998280;28;20412;-72
2022/03/08 07:25:13;;;;;;;12.23;5.43;;;;;;;-0.97;80.51;101688.44;5001171;28;20030;-72
2022/03/08 07:27:38;;;;;;;13.03;5.50;;;;;;;-0.86;79.77;101681.31;4999055;28;20052;-72
2022/03/08 07:30:06;;;;;;;13.47;5.30;;;;;;;-0.73;79.27;101678.63;4999543;28;20041;-72
2022/03/08 07:32:31;;;;;;;10.23;5.00;;;;;;;-0.61;79.52;101672.34;5008815;28;20499;-72
2022/03/08 07:34:56;;;;;;;11.13;5.20;;;;;;;-0.52;79.74;101675.47;4997970;28;20038;-72
2022/03/08 07:37:22;;;;;;;13.17;5.23;;;;;;;-0.43;78.87;101673.38;5000267;28;20392;-72
2022/03/08 07:39:48;;;;;;;8.87;5.33;;;;;;;-0.32;79.45;101674.88;4999469;28;20074;-72
2022/03/08 07:42:13;;;;;;;11.60;6.00;;;;;;;-0.21;79.27;101680.66;4997158;28;20068;-72
2022/03/08 07:44:41;;;;;;;9.57;4.80;;;;;;;-0.11;78.94;101682.06;5015719;28;20044;-72
2022/03/08 07:47:08;;;;;;;12.03;5.57;;;;;;;-0.01;78.50;101674.88;4998462;28;20523;-72
2022/03/08 07:49:34;;;;;;;11.13;5.77;;;;;;;0.08;78.57;101676.19;4999357;28;20513;-72
2022/03/08 07:52:00;;;;;;;12.63;5.50;;;;;;;0.16;78.79;101678.41;5000167;28;20555;-72
2022/03/08 07:54:26;;;;;;;17.97;7.90;;;;;;;0.27;79.02;101678.97;4996585;28;20069;-72
2022/03/08 07:56:51;;;;;;;19.97;8.30;;;;;;;0.38;79.40;101667.44;5000478;28;20140;-72
2022/03/08 07:59:16;;;;;;;21.40;10.73;;;;;;;0.47;79.03;101664.44;4998757;28;20121;-72
2022/03/08 08:01:42;;;;;;;18.37;9.33;;;;;;;0.59;79.19;101666.81;5006663;28;20062;-72
2022/03/08 08:04:07;;;;;;;15.77;9.07;;;;;;;0.69;79.36;101660.38;5025619;28;20041;-72
2022/03/08 08:06:32;;;;;;;15.83;7.87;;;;;;;0.72;78.52;101666.63;5004301;28;20051;-71
2022/03/08 08:08:58;;;;;;;13.03;6.50;;;;;;;0.79;78.64;101668.75;5048177;28;20035;-72
2022/03/08 08:11:23;;;;;;;9.10;5.43;;;;;;;0.85;78.03;101658.66;4998817;28;20080;-72
2022/03/08 08:13:49;;;;;;;15.53;5.60;;;;;;;0.87;78.14;101675.22;5032856;28;20039;-71
2022/03/08 08:16:17;;;;;;;13.55;6.43;;;;;;;0.99;78.01;101666.25;5019543;28;20038;-72
2022/03/08 08:18:42;;;;;;;11.15;5.30;;;;;;;1.11;77.78;101666.88;4998168;28;20084;-72
2022/03/08 08:21:07;;;;;;;12.60;6.07;;;;;;;1.21;77.91;101665.66;4998803;28;20438;-72
2022/03/08 08:23:33;;;;;;;14.07;7.15;;;;;;;1.34;77.22;101669.72;5000432;28;20038;-72
2022/03/08 08:25:58;;;;;;;12.95;6.65;;;;;;;1.44;77.20;101670.28;5027619;28;20430;-72
2022/03/08 08:28:24;;;;;;;15.93;7.00;;;;;;;1.58;77.07;101670.06;4997263;28;20046;-72
2022/03/08 08:30:49;;;;;;;14.43;5.57;;;;;;;1.62;76.61;101687.56;4999562;28;20098;-72
2022/03/08 08:33:14;;;;;;;9.45;4.93;;;;;;;1.66;76.46;101680.00;4999501;28;20050;-72
2022/03/08 08:35:40;;;;;;;11.20;5.10;;;;;;;1.75;76.15;101684.75;5019758;28;20038;-72
2022/03/08 08:38:06;;;;;;;9.85;5.40;;;;;;;1.82;76.21;101685.94;5014264;28;20059;-72
2022/03/08 08:40:34;;;;;;;9.98;5.50;;;;;;;1.91;76.53;101681.16;5022232;28;20048;-72
2022/03/08 08:42:59;;;;;;;14.27;5.63;;;;;;;1.97;76.05;101686.69;5028305;28;20038;-72
2022/03/08 08:45:25;;;;;;;12.93;6.28;;;;;;;2.04;76.11;101678.31;5007410;28;20041;-72
2022/03/08 08:47:50;;;;;;;13.48;6.28;;;;;;;2.14;75.51;101677.91;5041544;28;20415;-72
2022/03/08 08:50:15;;;;;;;10.23;5.82;;;;;;;2.24;75.37;101673.16;5034063;28;20083;-72
2022/03/08 08:52:41;;;;;;;8.82;5.00;;;;;;;2.34;75.05;101672.75;5005605;28;20033;-72
2022/03/08 08:55:07;;;;;;;14.55;6.63;;;;;;;2.40;74.92;101667.81;4998171;28;20033;-72
2022/03/08 08:57:33;;;;;;;14.20;6.70;;;;;;;2.51;74.30;101666.56;5000351;28;20038;-72
2022/03/08 08:59:58;;;;;;;11.57;5.72;;;;;;;2.56;74.40;101667.66;4999964;28;20106;-72
2022/03/08 09:02:23;;;;;;;11.05;5.70;;;;;;;2.63;74.22;101664.50;4996440;28;20042;-72
2022/03/08 09:04:49;;;;;;;10.93;5.18;;;;;;;2.74;73.33;101658.88;4998238;28;20439;-72
2022/03/08 09:07:14;;;;;;;13.68;5.65;;;;;;;2.75;72.69;101658.03;4999016;28;20408;-72
2022/03/08 09:09:39;;;;;;;10.52;5.03;;;;;;;2.80;73.41;101654.84;4996733;28;20074;-72
2022/03/08 09:12:05;;;;;;;10.93;4.93;;;;;;;2.94;72.79;101652.81;5001556;28;20039;-71
2022/03/08 09:14:31;;;;;;;16.17;6.38;;;;;;;3.06;72.64;101655.03;4998935;28;20045;-71
2022/03/08 09:16:56;;;;;;;14.02;6.57;;;;;;;3.11;72.70;101660.47;4998606;28;20117;-71
2022/03/08 09:19:22;;;;;;;9.60;5.13;;;;;;;3.21;72.46;101652.19;4997189;28;20454;-71
2022/03/08 09:21:47;;;;;;;9.02;4.35;;;;;;;3.29;71.76;101649.06;4999431;28;20077;-71
2022/03/08 09:24:13;;;;;;;10.38;4.32;;;;;;;3.35;71.45;101643.19;5001259;28;20061;-72
2022/03/08 09:26:38;;;;;;;12.48;4.90;;;;;;;3.45;71.19;101644.47;5000916;28;20038;-71
2022/03/08 09:29:04;;;;;;;11.00;4.63;;;;;;;3.55;70.82;101648.34;5000722;28;20034;-71
2022/03/08 09:31:29;;;;;;;10.88;4.93;;;;;;;3.66;70.79;101647.94;5001447;28;20084;-72
2022/03/08 09:33:54;;;;;;;13.95;5.95;;;;;;;3.81;70.29;101647.66;4999940;28;20034;-71
2022/03/08 09:36:20;;;;;;;10.07;4.38;;;;;;;3.87;69.50;101655.72;4997870;28;20094;-71
2022/03/08 09:38:45;;;;;;;9.23;3.70;;;;;;;3.95;69.38;101646.47;5001487;28;20031;-71
2022/03/08 09:41:11;;;;;;;10.73;4.43;;;;;;;4.02;68.62;101644.13;5000225;28;20042;-71
2022/03/08 09:43:38;;;;;;;8.35;4.00;;;;;;;4.16;68.43;101650.72;5002330;28;20041;-71
2022/03/08 09:46:04;;;;;;;8.73;4.35;;;;;;;4.24;68.27;101643.19;5041558;28;20084;-71
2022/03/08 09:48:29;;;;;;;9.38;4.20;;;;;;;4.31;67.94;101643.47;5005469;28;20045;-71
2022/03/08 09:50:59;;;;;;;8.88;4.88;;;;;;;4.46;67.73;101645.78;5009459;28;20063;-71
2022/03/08 09:53:25;;;;;;;8.88;5.13;;;;;;;4.60;67.81;101654.09;4999071;28;20037;-71
2022/03/08 09:55:51;;;;;;;12.98;4.57;;;;;;;4.65;67.35;101644.72;4998766;28;20373;-72
2022/03/08 09:58:20;;;;;;;10.57;4.65;;;;;;;4.75;66.88;101641.59;5026223;28;20122;-71
2022/03/08 10:00:46;;;;;;;10.88;4.57;;;;;;;4.86;66.33;101648.91;5034758;28;20034;-71
2022/03/08 10:03:11;;;;;;;12.02;5.03;;;;;;;4.94;65.94;101648.34;5006249;28;20060;-71
2022/03/08 10:05:40;;;;;;;10.80;4.43;;;;;;;5.02;65.46;101643.38;5019726;28;20522;-71
2022/03/08 10:08:13;;;;;;;7.15;3.83;;;;;;;5.02;64.41;101646.00;5016841;28;20050;-71
2022/03/08 10:10:49;;;;;;;7.57;3.00;;;;;;;5.10;63.82;101644.53;5017910;28;20578;-71
2022/03/08 10:13:14;;;;;;;9.18;3.55;;;;;;;5.18;63.85;101636.94;5006934;28;20030;-71
2022/03/08 10:15:41;;;;;;;5.90;2.42;;;;;;;5.21;63.66;101630.09;5017932;28;20442;-72
2022/03/08 10:18:06;;;;;;;6.78;2.70;;;;;;;5.35;63.91;101629.66;5007128;28;20050;-71
2022/03/08 10:20:33;;;;;;;11.15;3.90;;;;;;;5.55;62.87;101625.03;5034731;28;20121;-71
2022/03/08 10:23:00;;;;;;;7.88;2.60;;;;;;;5.55;61.00;101628.53;5002158;28;20170;-71
2022/03/08 10:25:29;;;;;;;7.10;2.38;;;;;;;5.65;61.03;101620.13;4999046;28;20087;-71
2022/03/08 10:27:54;;;;;;;9.18;2.92;;;;;;;5.77;60.77;101627.50;5001449;28;20038;-71
2022/03/08 10:30:22;;;;;;;7.53;2.08;;;;;;;5.77;59.36;101621.38;5000679;28;20420;-71
2022/03/08 10:32:48;;;;;;;6.60;2.92;;;;;;;5.83;59.24;101621.56;4999063;28;20038;-71
2022/03/08 10:35:24;;;;;;;9.40;2.95;;;;;;;5.84;56.92;101625.94;5002033;28;20685;-72
2022/03/08 10:37:50;;;;;;;7.78;3.47;;;;;;;5.92;57.88;101622.75;5000389;28;20045;-72
2022/03/08 10:40:23;;;;;;;6.55;3.05;;;;;;;6.04;57.55;101622.22;4999030;28;20042;-71
2022/03/08 10:42:59;;;;;;;5.07;2.45;;;;;;;6.07;55.15;101619.69;5000577;28;20034;-72
2022/03/08 10:45:26;;;;;;;7.78;2.92;;;;;;;6.18;57.04;101624.38;5001703;28;20499;-71
2022/03/08 10:47:53;;;;;;;7.75;3.30;;;;;;;6.30;57.52;101619.50;5023307;28;20572;-72
2022/03/08 10:50:28;;;;;;;7.10;3.25;;;;;;;6.33;55.16;101620.47;5000448;28;20175;-71
2022/03/08 10:52:56;;;;;;;5.60;2.83;;;;;;;6.35;55.54;101612.66;5003139;28;20555;-71
2022/03/08 10:55:26;;;;;;;7.65;3.70;;;;;;;6.41;55.44;101611.94;5000357;28;20420;-71
2022/03/08 10:57:55;;;;;;;6.97;3.25;;;;;;;6.47;55.53;101607.75;5026536;28;20039;-72
2022/03/08 11:00:28;;;;;;;10.75;5.32;;;;;;;6.54;55.65;101607.06;5017120;28;20045;-72
2022/03/08 11:03:01;;;;;;;9.57;4.15;;;;;;;6.70;55.67;101604.84;5000257;28;20182;-72
2022/03/08 11:05:28;;;;;;;;;;;;;;;6.77;54.19;101606.81;5001069;28;20065;-71
2022/03/08 11:07:54;;;;;;;8.75;3.92;;;;;;;6.93;55.73;101601.09;5003261;28;20070;-72
2022/03/08 11:10:21;;;;;;;6.22;3.60;;;;;;;7.07;54.88;101600.56;5006379;28;20117;-71
2022/03/08 11:12:47;;;;;;;7.50;3.75;;;;;;;7.20;54.80;101603.56;5015822;28;20049;-72
2022/03/08 11:15:14;;;;;;;10.07;3.72;;;;;;;7.32;54.36;101596.81;5010546;28;20026;-72
2022/03/08 11:17:43;;;;;;;8.63;4.00;;;;;;;7.43;53.97;101603.19;5015866;28;20046;-72